Time;durP1;ratioP1;P1;durP2;ratioP2;P2;SDS_P1;SDS_P2;PMS_P1;PMS_P2;Temp;Humidity;BMP_temperature;BMP_pressure;BME280_temperature;BME280_humidity;BME280_pressure;Samples;Min_cycle;Max_cycle;Signal;HPM_P1;HPM_P2
2022/05/25 00:03:22;;;;;;;31.37;22.43;;;;;;;;;;10409052;28;20033;-78
2022/05/25 00:08:23;;;;;;;32.33;23.13;;;;;;;;;;10408877;28;20047;-71
2022/05/25 00:13:24;;;;;;;29.42;18.15;;;;;;;;;;10408498;28;20103;-73
2022/05/25 00:18:25;;;;;;;21.08;12.63;;;;;;;;;;10408490;28;20087;-73
2022/05/25 00:23:25;;;;;;;13.93;10.57;;;;;;;;;;10408098;28;20014;-79
2022/05/25 00:28:25;;;;;;;14.17;10.73;;;;;;;;;;10410182;28;20021;-76
2022/05/25 00:33:26;;;;;;;18.93;12.10;;;;;;;;;;10408241;28;20025;-74
2022/05/25 00:38:26;;;;;;;23.45;12.23;;;;;;;;;;10407514;28;20033;-72
2022/05/25 00:43:27;;;;;;;14.57;10.05;;;;;;;;;;10408068;28;20402;-73
2022/05/25 00:48:48;;;;;;;18.17;10.93;;;;;;;;;;10409057;28;20037;-78
2022/05/25 00:53:51;;;;;;;15.63;11.38;;;;;;;;;;10407077;28;20022;-75
2022/05/25 00:59:03;;;;;;;17.70;12.10;;;;;;;;;;10407829;28;20081;-72
2022/05/25 01:04:04;;;;;;;20.98;11.82;;;;;;;;;;10407175;28;20021;-72
2022/05/25 01:09:16;;;;;;;15.83;10.57;;;;;;;;;;10406562;28;20549;-72
2022/05/25 01:14:24;;;;;;;17.58;11.25;;;;;;;;;;10406577;28;20094;-73
2022/05/25 01:19:42;;;;;;;19.98;14.45;;;;;;;;;;10406471;28;20056;-71
2022/05/25 01:24:59;;;;;;;22.38;12.55;;;;;;;;;;10406153;28;20032;-75
2022/05/25 01:30:05;;;;;;;19.10;13.60;;;;;;;;;;10406258;28;20029;-72
2022/05/25 01:35:32;;;;;;;19.15;14.65;;;;;;;;;;10405615;28;20046;-72
2022/05/25 01:40:56;;;;;;;24.40;13.73;;;;;;;;;;10400615;28;20052;-72
2022/05/25 01:45:59;;;;;;;20.38;12.85;;;;;;;;;;10405148;28;20036;-71
2022/05/25 01:51:03;;;;;;;19.02;13.05;;;;;;;;;;10405309;28;20035;-76
2022/05/25 01:56:05;;;;;;;23.05;13.13;;;;;;;;;;10404895;28;20584;-72
2022/05/25 02:01:07;;;;;;;20.42;12.85;;;;;;;;;;10404935;28;20052;-73
2022/05/25 02:06:26;;;;;;;19.65;12.45;;;;;;;;;;10404876;28;20025;-73
2022/05/25 02:11:33;;;;;;;18.00;14.00;;;;;;;;;;10405801;28;20034;-75
2022/05/25 02:16:33;;;;;;;19.80;12.85;;;;;;;;;;10403203;28;20097;-71
2022/05/25 02:21:46;;;;;;;20.50;13.48;;;;;;;;;;10405159;28;20191;-73
2022/05/25 02:26:46;;;;;;;25.38;14.10;;;;;;;;;;10403633;28;20147;-72
2022/05/25 02:31:50;;;;;;;20.25;14.73;;;;;;;;;;10403933;28;20030;-72
2022/05/25 02:36:53;;;;;;;22.75;14.57;;;;;;;;;;10404886;28;20075;-73
2022/05/25 02:41:56;;;;;;;20.95;14.45;;;;;;;;;;10403141;28;20030;-73
2022/05/25 02:46:57;;;;;;;24.17;14.90;;;;;;;;;;10403003;28;20025;-75
2022/05/25 02:51:57;;;;;;;24.20;17.07;;;;;;;;;;10403140;28;20107;-74
2022/05/25 02:56:57;;;;;;;22.42;14.23;;;;;;;;;;10402708;28;20107;-73
2022/05/25 03:01:57;;;;;;;26.60;14.70;;;;;;;;;;10402442;28;20036;-73
2022/05/25 03:06:58;;;;;;;22.58;13.55;;;;;;;;;;10402574;28;20080;-74
2022/05/25 03:11:59;;;;;;;29.77;14.95;;;;;;;;;;10403476;28;20017;-74
2022/05/25 03:17:08;;;;;;;22.38;14.85;;;;;;;;;;10401672;28;20735;-74
2022/05/25 03:22:08;;;;;;;27.45;15.68;;;;;;;;;;10402239;28;20064;-77
2022/05/25 03:27:09;;;;;;;26.63;15.87;;;;;;;;;;10407582;28;20152;-72
2022/05/25 03:32:09;;;;;;;21.85;15.40;;;;;;;;;;10411969;28;20120;-73
2022/05/25 03:37:10;;;;;;;28.40;15.23;;;;;;;;;;10410320;28;20029;-73
2022/05/25 03:42:13;;;;;;;21.17;14.90;;;;;;;;;;10409383;28;20463;-74
2022/05/25 03:47:14;;;;;;;18.48;13.35;;;;;;;;;;10393241;28;20017;-72
2022/05/25 03:52:19;;;;;;;19.45;13.02;;;;;;;;;;10410283;28;20040;-78
2022/05/25 03:57:19;;;;;;;23.35;14.32;;;;;;;;;;10409429;28;20018;-72
2022/05/25 04:02:20;;;;;;;19.00;12.38;;;;;;;;;;10410617;28;20029;-71
2022/05/25 04:07:20;;;;;;;23.25;12.32;;;;;;;;;;10409535;28;20034;-73
2022/05/25 04:12:22;;;;;;;18.95;11.38;;;;;;;;;;10408907;28;20456;-73
2022/05/25 04:17:22;;;;;;;20.55;11.43;;;;;;;;;;10408262;28;20207;-72
2022/05/25 04:22:23;;;;;;;18.33;10.82;;;;;;;;;;10408417;28;20094;-70
2022/05/25 04:27:23;;;;;;;18.10;12.37;;;;;;;;;;10409771;28;20029;-72
2022/05/25 04:32:23;;;;;;;18.08;9.95;;;;;;;;;;10409844;28;20116;-73
2022/05/25 04:42:45;;;;;;;27.48;10.63;;;;;;;;;;10408805;28;20026;-74
2022/05/25 04:47:45;;;;;;;20.25;9.75;;;;;;;;;;10407227;28;20159;-75
2022/05/25 04:52:46;;;;;;;15.90;9.55;;;;;;;;;;10407039;28;20155;-75
2022/05/25 04:57:47;;;;;;;17.88;12.35;;;;;;;;;;10406500;28;20029;-72
2022/05/25 05:02:47;;;;;;;26.05;14.57;;;;;;;;;;10390315;28;20026;-72
2022/05/25 05:07:47;;;;;;;20.42;13.50;;;;;;;;;;10406892;28;20601;-73
2022/05/25 05:12:47;;;;;;;19.70;11.07;;;;;;;;;;10406029;28;20021;-72
2022/05/25 05:17:48;;;;;;;18.20;11.15;;;;;;;;;;10405645;28;20121;-71
2022/05/25 05:22:48;;;;;;;14.45;9.80;;;;;;;;;;10405703;28;20026;-73
2022/05/25 05:27:49;;;;;;;30.65;9.90;;;;;;;;;;10406112;28;20044;-72
2022/05/25 05:32:49;;;;;;;14.73;9.73;;;;;;;;;;10404866;28;20112;-72
2022/05/25 05:37:51;;;;;;;14.93;10.35;;;;;;;;;;10405345;28;20608;-74
2022/05/25 05:42:52;;;;;;;13.85;8.57;;;;;;;;;;10405985;28;20517;-75
2022/05/25 05:48:16;;;;;;;16.75;8.82;;;;;;;;;;10403288;28;20033;-73
2022/05/25 05:53:16;;;;;;;12.65;8.60;;;;;;;;;;10393530;28;20524;-72
2022/05/25 05:58:16;;;;;;;19.10;9.45;;;;;;;;;;10403754;28;20100;-74
2022/05/25 06:03:17;;;;;;;16.50;9.02;;;;;;;;;;10405555;28;20506;-72
2022/05/25 06:08:21;;;;;;;16.42;8.27;;;;;;;;;;10405419;28;20116;-73
2022/05/25 06:13:21;;;;;;;17.95;8.48;;;;;;;;;;10387175;28;20087;-75
2022/05/25 06:23:40;;;;;;;16.60;9.50;;;;;;;;;;10405316;28;20030;-71
2022/05/25 06:28:40;;;;;;;13.88;8.68;;;;;;;;;;10403123;28;20022;-72
2022/05/25 06:33:43;;;;;;;16.27;9.13;;;;;;;;;;10402656;28;20026;-73
2022/05/25 06:38:43;;;;;;;16.40;10.13;;;;;;;;;;10403236;28;20036;-76
2022/05/25 06:43:44;;;;;;;19.73;9.05;;;;;;;;;;10403834;28;20193;-72
2022/05/25 06:48:52;;;;;;;16.13;9.27;;;;;;;;;;10402059;28;20056;-71
2022/05/25 06:53:53;;;;;;;19.60;9.10;;;;;;;;;;10402106;28;20406;-72
2022/05/25 06:58:54;;;;;;;14.38;8.40;;;;;;;;;;10402074;28;20025;-71
2022/05/25 07:03:54;;;;;;;15.82;7.47;;;;;;;;;;10402093;28;20401;-72
2022/05/25 07:08:55;;;;;;;17.33;7.40;;;;;;;;;;10403662;28;20071;-76
2022/05/25 07:13:55;;;;;;;14.75;7.32;;;;;;;;;;10401472;28;20506;-72
2022/05/25 07:18:55;;;;;;;14.87;7.30;;;;;;;;;;10403653;28;20026;-71
2022/05/25 07:23:57;;;;;;;10.32;7.25;;;;;;;;;;10403096;28;20653;-74
2022/05/25 07:28:57;;;;;;;15.05;6.40;;;;;;;;;;10401357;28;20030;-77
2022/05/25 07:34:00;;;;;;;13.93;7.55;;;;;;;;;;10401534;28;20021;-72
2022/05/25 07:39:03;;;;;;;11.18;6.57;;;;;;;;;;10401651;28;20033;-73
2022/05/25 07:44:03;;;;;;;10.63;6.13;;;;;;;;;;10401295;28;20049;-74
2022/05/25 07:49:03;;;;;;;17.50;6.65;;;;;;;;;;10401382;28;20116;-72
2022/05/25 07:54:04;;;;;;;7.40;5.67;;;;;;;;;;10384527;28;20037;-71
2022/05/25 07:59:07;;;;;;;12.68;6.30;;;;;;;;;;10400588;28;20044;-72
2022/05/25 08:09:27;;;;;;;13.95;6.10;;;;;;;;;;10402191;28;20040;-72
2022/05/25 08:14:28;;;;;;;17.38;6.75;;;;;;;;;;10390287;28;20064;-76
2022/05/25 08:19:30;;;;;;;9.40;5.32;;;;;;;;;;10408389;28;20017;-73
2022/05/25 08:24:30;;;;;;;11.38;5.82;;;;;;;;;;10408180;28;20448;-71
2022/05/25 08:29:31;;;;;;;9.40;4.77;;;;;;;;;;10407422;28;20025;-73
2022/05/25 08:34:31;;;;;;;13.47;5.20;;;;;;;;;;10408840;28;20018;-75
2022/05/25 08:39:31;;;;;;;9.00;5.00;;;;;;;;;;10407346;28;20433;-71
2022/05/25 08:44:33;;;;;;;13.50;4.93;;;;;;;;;;10407315;28;20025;-75
2022/05/25 08:49:34;;;;;;;11.00;4.82;;;;;;;;;;10419902;28;20115;-72
2022/05/25 08:54:36;;;;;;;9.82;4.97;;;;;;;;;;10410787;28;20556;-74
2022/05/25 08:59:39;;;;;;;16.00;5.68;;;;;;;;;;10406522;28;20029;-70
2022/05/25 09:04:55;;;;;;;11.55;5.90;;;;;;;;;;10407731;28;20133;-70
2022/05/25 09:09:56;;;;;;;13.52;6.40;;;;;;;;;;10406677;28;20407;-72
2022/05/25 09:14:59;;;;;;;18.27;6.30;;;;;;;;;;10407409;28;20057;-71
2022/05/25 09:20:00;;;;;;;12.38;5.80;;;;;;;;;;10406097;28;20562;-73
2022/05/25 09:25:03;;;;;;;13.20;5.10;;;;;;;;;;10389195;28;20021;-73
2022/05/25 09:30:04;;;;;;;16.38;6.35;;;;;;;;;;10405348;28;20017;-75
2022/05/25 09:35:10;;;;;;;9.07;5.32;;;;;;;;;;10416034;28;20087;-73
2022/05/25 09:40:25;;;;;;;14.45;5.95;;;;;;;;;;10406540;28;20086;-74
2022/05/25 09:45:33;;;;;;;21.92;5.75;;;;;;;;;;10405126;28;20025;-73
2022/05/25 09:50:36;;;;;;;15.60;6.20;;;;;;;;;;10404914;28;20052;-74
2022/05/25 09:55:40;;;;;;;11.95;4.90;;;;;;;;;;10404262;28;20052;-73
2022/05/25 10:00:53;;;;;;;10.30;4.70;;;;;;;;;;10405388;28;20446;-73
2022/05/25 10:05:58;;;;;;;14.10;5.60;;;;;;;;;;10404121;28;20029;-73
2022/05/25 10:11:07;;;;;;;11.13;5.20;;;;;;;;;;10404473;28;20552;-72
2022/05/25 10:16:28;;;;;;;14.57;5.28;;;;;;;;;;10403431;28;20128;-72
2022/05/25 10:21:28;;;;;;;16.40;5.60;;;;;;;;;;10404194;28;20564;-71
2022/05/25 10:26:34;;;;;;;13.55;4.57;;;;;;;;;;10403347;28;20100;-70
2022/05/25 10:37:05;;;;;;;12.43;4.43;;;;;;;;;;10403792;28;20401;-72
2022/05/25 10:42:08;;;;;;;10.52;4.65;;;;;;;;;;10402788;28;20053;-73
2022/05/25 10:47:20;;;;;;;8.25;4.18;;;;;;;;;;10402751;28;20032;-71
2022/05/25 10:52:42;;;;;;;13.27;4.70;;;;;;;;;;10402604;28;20025;-71
2022/05/25 10:57:44;;;;;;;12.30;4.47;;;;;;;;;;10402221;28;20017;-71
2022/05/25 11:02:47;;;;;;;16.13;5.07;;;;;;;;;;10402028;28;20401;-71
2022/05/25 11:07:48;;;;;;;11.43;5.05;;;;;;;;;;10402421;28;20095;-70
2022/05/25 11:13:04;;;;;;;12.77;6.00;;;;;;;;;;10385701;28;20017;-71
2022/05/25 11:18:11;;;;;;;11.43;5.78;;;;;;;;;;10402080;28;20054;-75
2022/05/25 11:23:30;;;;;;;13.90;6.68;;;;;;;;;;10401908;28;20041;-74
2022/05/25 11:28:49;;;;;;;10.68;5.10;;;;;;;;;;10401733;28;20033;-71
2022/05/25 11:33:59;;;;;;;21.90;5.70;;;;;;;;;;10401368;28;20093;-74
2022/05/25 11:39:08;;;;;;;15.00;5.75;;;;;;;;;;10401486;28;20493;-73
2022/05/25 11:44:27;;;;;;;15.10;5.72;;;;;;;;;;10402493;28;20091;-77
2022/05/25 11:49:28;;;;;;;14.77;6.53;;;;;;;;;;10407912;28;20081;-70
2022/05/25 11:54:34;;;;;;;12.20;4.78;;;;;;;;;;10409153;28;20390;-80
2022/05/25 11:59:53;;;;;;;9.77;4.80;;;;;;;;;;10409802;28;20440;-75
2022/05/25 12:05:04;;;;;;;11.90;4.53;;;;;;;;;;10392333;28;20022;-78
2022/05/25 12:10:07;;;;;;;12.48;3.75;;;;;;;;;;10408576;28;20509;-75
2022/05/25 12:15:16;;;;;;;8.02;3.47;;;;;;;;;;10408299;28;20606;-75
2022/05/25 12:20:24;;;;;;;7.95;3.83;;;;;;;;;;10408875;28;20498;-74
2022/05/25 12:25:24;;;;;;;20.25;2.88;;;;;;;;;;10408139;28;20017;-74
2022/05/25 12:30:39;;;;;;;9.17;2.40;;;;;;;;;;10382146;23;20054;-72
2022/05/25 12:35:40;;;;;;;9.95;2.10;;;;;;;;;;10326486;28;20277;-74
2022/05/25 12:40:42;;;;;;;18.17;3.33;;;;;;;;;;10309867;28;20402;-73
2022/05/25 12:51:30;;;;;;;7.63;2.35;;;;;;;;;;10327832;28;20026;-73
2022/05/25 12:56:30;;;;;;;10.90;2.00;;;;;;;;;;10325548;28;20513;-75
2022/05/25 13:01:35;;;;;;;7.47;2.08;;;;;;;;;;10326416;28;20584;-77
2022/05/25 13:06:37;;;;;;;9.48;2.60;;;;;;;;;;10325369;28;20018;-76
2022/05/25 13:11:41;;;;;;;9.90;1.98;;;;;;;;;;10330312;28;20121;-72
2022/05/25 13:16:41;;;;;;;13.43;2.75;;;;;;;;;;10325374;28;20109;-75
2022/05/25 13:21:43;;;;;;;6.68;2.17;;;;;;;;;;10324859;28;20029;-73
2022/05/25 13:26:55;;;;;;;9.70;3.13;;;;;;;;;;10324292;28;20414;-71
2022/05/25 13:32:12;;;;;;;11.23;2.33;;;;;;;;;;10324042;28;20057;-75
2022/05/25 13:37:14;;;;;;;11.63;2.97;;;;;;;;;;10323962;28;20034;-71
2022/05/25 13:42:15;;;;;;;13.45;2.70;;;;;;;;;;10324215;28;20058;-72
2022/05/25 13:47:23;;;;;;;13.25;2.72;;;;;;;;;;10323523;28;20057;-72
2022/05/25 13:52:23;;;;;;;9.80;2.25;;;;;;;;;;10323521;28;20026;-71
2022/05/25 13:57:38;;;;;;;8.20;3.22;;;;;;;;;;10323271;28;20026;-73
2022/05/25 14:02:42;;;;;;;9.55;2.00;;;;;;;;;;10323170;28;20103;-72
2022/05/25 14:07:45;;;;;;;8.48;2.88;;;;;;;;;;10323030;28;20026;-74
2022/05/25 14:12:45;;;;;;;14.73;2.45;;;;;;;;;;10321874;28;20023;-72
2022/05/25 14:17:56;;;;;;;15.00;2.90;;;;;;;;;;10321963;28;20019;-71
2022/05/25 14:22:56;;;;;;;11.90;2.10;;;;;;;;;;10323838;28;20025;-73
2022/05/25 14:27:56;;;;;;;5.90;2.53;;;;;;;;;;10321490;28;20061;-71
2022/05/25 14:33:02;;;;;;;10.55;2.13;;;;;;;;;;10322077;28;20045;-72
2022/05/25 14:38:04;;;;;;;13.90;2.58;;;;;;;;;;10321378;28;20418;-72
2022/05/25 14:43:04;;;;;;;11.05;3.22;;;;;;;;;;10323029;28;20030;-75
2022/05/25 14:48:07;;;;;;;13.83;2.20;;;;;;;;;;10305177;28;20442;-73
2022/05/25 14:53:10;;;;;;;13.32;3.15;;;;;;;;;;10320729;28;20486;-73
2022/05/25 14:58:10;;;;;;;17.00;4.82;;;;;;;;;;10322130;28;20570;-72
2022/05/25 15:03:11;;;;;;;13.25;2.80;;;;;;;;;;10322207;28;20030;-72
2022/05/25 15:08:27;;;;;;;8.68;2.30;;;;;;;;;;10320825;28;20061;-74
2022/05/25 15:18:49;;;;;;;9.25;2.53;;;;;;;;;;10322175;28;20026;-73
2022/05/25 15:23:59;;;;;;;14.35;2.22;;;;;;;;;;10332810;28;20065;-80
2022/05/25 15:29:11;;;;;;;13.00;2.33;;;;;;;;;;10333801;28;20201;-76
2022/05/25 15:34:12;;;;;;;12.07;1.95;;;;;;;;;;10334649;28;20034;-72
2022/05/25 15:39:14;;;;;;;17.13;2.47;;;;;;;;;;10333415;28;20073;-71
2022/05/25 15:44:15;;;;;;;14.20;2.45;;;;;;;;;;10334167;28;20021;-72
2022/05/25 15:49:18;;;;;;;20.98;3.38;;;;;;;;;;10333133;28;20509;-72
2022/05/25 15:54:20;;;;;;;21.77;8.30;;;;;;;;;;10338710;28;20026;-72
2022/05/25 15:59:20;;;;;;;23.52;10.38;;;;;;;;;;10332965;28;20022;-76
2022/05/25 16:04:22;;;;;;;26.33;11.27;;;;;;;;;;10334372;28;20014;-76
2022/05/25 16:09:23;;;;;;;20.42;11.13;;;;;;;;;;10333152;28;20275;-75
2022/05/25 16:14:24;;;;;;;32.70;13.25;;;;;;;;;;10333070;28;20022;-73
2022/05/25 16:19:24;;;;;;;28.58;15.75;;;;;;;;;;10316800;28;20030;-72
2022/05/25 16:24:24;;;;;;;31.93;16.33;;;;;;;;;;10332866;28;20093;-72
2022/05/25 16:29:24;;;;;;;40.42;19.95;;;;;;;;;;10332688;28;20046;-72
2022/05/25 16:34:25;;;;;;;35.25;18.65;;;;;;;;;;10329092;28;20092;-72
2022/05/25 16:39:25;;;;;;;48.00;19.05;;;;;;;;;;10309763;28;20402;-73
2022/05/25 16:44:25;;;;;;;40.95;18.75;;;;;;;;;;10325874;28;20081;-71
2022/05/25 16:49:26;;;;;;;38.60;18.25;;;;;;;;;;10326671;28;20019;-72
2022/05/25 16:54:26;;;;;;;33.35;17.42;;;;;;;;;;10325091;28;20025;-72
2022/05/25 16:59:29;;;;;;;38.38;19.27;;;;;;;;;;10326295;28;20110;-73
2022/05/25 17:04:29;;;;;;;38.33;18.77;;;;;;;;;;10326083;28;20097;-73
2022/05/25 17:09:29;;;;;;;37.30;19.50;;;;;;;;;;10324471;28;20022;-73
2022/05/25 17:14:30;;;;;;;38.92;19.90;;;;;;;;;;10325641;28;20030;-71
2022/05/25 17:24:49;;;;;;;36.92;20.15;;;;;;;;;;10325242;28;20031;-73
2022/05/25 17:29:52;;;;;;;40.80;20.40;;;;;;;;;;10323778;28;20050;-74
2022/05/25 17:34:52;;;;;;;38.30;20.52;;;;;;;;;;10323845;28;20030;-73
2022/05/25 17:45:11;;;;;;;37.97;20.15;;;;;;;;;;10325180;28;20026;-73
2022/05/25 17:50:14;;;;;;;44.13;21.40;;;;;;;;;;10324894;28;20030;-73
2022/05/25 17:55:14;;;;;;;48.47;21.17;;;;;;;;;;10323060;28;20627;-73
2022/05/25 18:00:17;;;;;;;43.83;20.87;;;;;;;;;;10323641;28;20121;-73
2022/05/25 18:05:17;;;;;;;39.95;19.15;;;;;;;;;;10322521;28;20030;-72
2022/05/25 18:10:19;;;;;;;41.83;21.90;;;;;;;;;;10322965;28;20026;-72
2022/05/25 18:15:22;;;;;;;43.20;22.15;;;;;;;;;;10324029;28;20026;-75
2022/05/25 18:20:24;;;;;;;43.13;22.67;;;;;;;;;;10322254;28;20402;-74
2022/05/25 18:25:29;;;;;;;44.38;22.20;;;;;;;;;;10322202;28;20022;-72
2022/05/25 18:30:30;;;;;;;42.95;21.00;;;;;;;;;;10322061;28;20578;-74
2022/05/25 18:35:30;;;;;;;42.53;22.67;;;;;;;;;;10323404;28;20026;-72
2022/05/25 18:40:31;;;;;;;44.57;22.47;;;;;;;;;;10323312;28;20049;-75
2022/05/25 18:45:31;;;;;;;41.67;21.00;;;;;;;;;;10322895;28;20034;-73
2022/05/25 18:50:32;;;;;;;46.10;21.40;;;;;;;;;;10321562;28;20097;-73
2022/05/25 18:55:32;;;;;;;43.27;21.07;;;;;;;;;;10321318;28;20033;-72
2022/05/25 19:00:32;;;;;;;44.63;23.27;;;;;;;;;;10322638;28;20033;-72
2022/05/25 19:05:33;;;;;;;40.63;21.60;;;;;;;;;;10323328;28;20030;-73
2022/05/25 19:10:33;;;;;;;46.67;22.53;;;;;;;;;;10321006;28;20081;-75
2022/05/25 19:15:34;;;;;;;43.58;23.38;;;;;;;;;;10322048;28;20029;-72
2022/05/25 19:20:35;;;;;;;40.35;21.70;;;;;;;;;;10321710;28;20088;-72
2022/05/25 19:25:47;;;;;;;44.95;23.00;;;;;;;;;;10322784;28;20076;-73
2022/05/25 19:30:49;;;;;;;46.45;23.17;;;;;;;;;;10320627;28;20058;-76
2022/05/25 19:35:51;;;;;;;47.72;22.48;;;;;;;;;;10320682;28;20031;-78
2022/05/25 19:40:52;;;;;;;41.70;21.70;;;;;;;;;;10320200;28;20486;-71
2022/05/25 19:45:53;;;;;;;44.33;21.90;;;;;;;;;;10320614;28;20027;-72
2022/05/25 19:50:54;;;;;;;43.97;23.25;;;;;;;;;;10320218;28;20030;-73
2022/05/25 19:55:55;;;;;;;45.38;22.95;;;;;;;;;;10320006;28;20042;-72
2022/05/25 20:00:55;;;;;;;49.83;24.67;;;;;;;;;;10321218;28;20026;-72
2022/05/25 20:05:56;;;;;;;45.17;23.42;;;;;;;;;;10320652;28;20029;-72
2022/05/25 20:10:56;;;;;;;56.75;24.73;;;;;;;;;;10326782;28;20041;-75
2022/05/25 20:15:57;;;;;;;48.60;24.70;;;;;;;;;;10327353;28;20022;-74
2022/05/25 20:20:58;;;;;;;52.53;24.05;;;;;;;;;;10326889;28;20031;-73
2022/05/25 20:25:58;;;;;;;50.15;24.42;;;;;;;;;;10326838;28;20022;-79
2022/05/25 20:30:58;;;;;;;45.90;22.88;;;;;;;;;;10327382;28;20050;-73
2022/05/25 20:35:59;;;;;;;45.13;23.33;;;;;;;;;;10327919;28;20026;-74
2022/05/25 20:40:59;;;;;;;48.42;24.17;;;;;;;;;;10327992;28;20034;-71
2022/05/25 20:45:59;;;;;;;49.15;23.05;;;;;;;;;;10327732;28;20109;-73
2022/05/25 20:51:00;;;;;;;46.45;22.80;;;;;;;;;;10327808;28;20034;-71
2022/05/25 20:56:05;;;;;;;48.75;23.88;;;;;;;;;;10326096;28;20034;-72
2022/05/25 21:01:05;;;;;;;47.20;24.88;;;;;;;;;;10309615;28;20018;-72
2022/05/25 21:06:06;;;;;;;48.83;24.65;;;;;;;;;;10325928;28;20022;-72
2022/05/25 21:11:06;;;;;;;50.78;25.05;;;;;;;;;;10326069;28;20054;-74
2022/05/25 21:16:07;;;;;;;42.85;24.13;;;;;;;;;;10325182;28;20022;-73
2022/05/25 21:21:07;;;;;;;58.63;27.47;;;;;;;;;;10308502;28;20402;-75
2022/05/25 21:26:07;;;;;;;54.67;27.50;;;;;;;;;;10324987;28;20269;-73
2022/05/25 21:36:27;;;;;;;47.35;26.27;;;;;;;;;;10326668;28;20050;-77
2022/05/25 21:41:27;;;;;;;51.47;26.25;;;;;;;;;;10325669;28;20418;-76
2022/05/25 21:51:46;;;;;;;45.03;24.30;;;;;;;;;;10325567;28;20030;-73
2022/05/25 21:56:46;;;;;;;45.33;24.48;;;;;;;;;;10324026;28;20030;-73
2022/05/25 22:01:47;;;;;;;51.33;27.98;;;;;;;;;;10323522;28;20491;-77
2022/05/25 22:06:47;;;;;;;54.45;25.40;;;;;;;;;;10324071;28;20062;-72
2022/05/25 22:11:47;;;;;;;54.70;27.00;;;;;;;;;;10324764;28;20077;-73
2022/05/25 22:16:50;;;;;;;62.28;29.33;;;;;;;;;;10322918;28;20056;-75
2022/05/25 22:21:50;;;;;;;66.72;29.85;;;;;;;;;;10322879;28;20026;-79
2022/05/25 22:26:51;;;;;;;55.72;29.58;;;;;;;;;;10322527;28;20026;-73
2022/05/25 22:31:54;;;;;;;57.13;27.07;;;;;;;;;;10322098;28;20049;-74
2022/05/25 22:36:54;;;;;;;60.60;29.85;;;;;;;;;;10322429;28;20021;-72
2022/05/25 22:41:55;;;;;;;58.70;30.20;;;;;;;;;;10323609;28;20022;-77
2022/05/25 22:46:56;;;;;;;54.80;28.77;;;;;;;;;;10323296;28;20076;-72
2022/05/25 22:51:56;;;;;;;65.17;32.60;;;;;;;;;;10305506;28;20025;-75
2022/05/25 22:56:58;;;;;;;59.83;31.03;;;;;;;;;;10321813;28;20110;-76
2022/05/25 23:01:59;;;;;;;61.10;30.05;;;;;;;;;;10321915;28;20030;-72
2022/05/25 23:06:59;;;;;;;64.35;32.10;;;;;;;;;;10321415;28;20383;-72
2022/05/25 23:11:59;;;;;;;55.97;29.67;;;;;;;;;;10322912;28;20034;-72
2022/05/25 23:17:01;;;;;;;65.30;31.52;;;;;;;;;;10321214;28;20444;-71
2022/05/25 23:22:01;;;;;;;64.88;33.05;;;;;;;;;;10322648;28;20030;-72
2022/05/25 23:27:01;;;;;;;61.90;33.03;;;;;;;;;;10320777;28;20046;-73
2022/05/25 23:32:03;;;;;;;64.10;33.55;;;;;;;;;;10320995;28;20019;-71
2022/05/25 23:37:03;;;;;;;76.82;36.92;;;;;;;;;;10320779;28;20592;-70
2022/05/25 23:47:23;;;;;;;66.82;33.70;;;;;;;;;;10330779;28;20550;-71
2022/05/25 23:52:23;;;;;;;62.80;31.20;;;;;;;;;;10328568;28;20026;-76
2022/05/25 23:57:23;;;;;;;68.50;32.77;;;;;;;;;;10329422;28;20018;-72
